Time;durP1;ratioP1;P1;durP2;ratioP2;P2;SDS_P1;SDS_P2;PMS_P1;PMS_P2;Temp;Humidity;BMP_temperature;BMP_pressure;BME280_temperature;BME280_humidity;BME280_pressure;Samples;Min_cycle;Max_cycle;Signal;HPM_P1;HPM_P2
2022/12/13 00:01:16;;;;;;;47.08;27.48;;;;;;;;;;7357081;19;20046;-82
2022/12/13 00:03:41;;;;;;;47.90;27.38;;;;;;;;;;7369878;19;20422;-82
2022/12/13 00:06:07;;;;;;;51.95;28.48;;;;;;;;;;7376277;19;20024;-82
2022/12/13 00:08:33;;;;;;;47.83;28.45;;;;;;;;;;7364097;19;21000;-82
2022/12/13 00:11:02;;;;;;;53.85;29.13;;;;;;;;;;7368906;19;20023;-82
2022/12/13 00:13:28;;;;;;;50.05;29.10;;;;;;;;;;7368313;19;20049;-83
2022/12/13 00:16:01;;;;;;;56.17;31.45;;;;;;;;;;7372437;19;20023;-82
2022/12/13 00:18:26;;;;;;;58.65;33.60;;;;;;;;;;7378455;19;21311;-82
2022/12/13 00:20:52;;;;;;;56.53;31.65;;;;;;;;;;7370897;19;20094;-82
2022/12/13 00:23:17;;;;;;;59.78;32.80;;;;;;;;;;7375182;19;20006;-82
2022/12/13 00:25:42;;;;;;;54.35;31.30;;;;;;;;;;7371769;19;20338;-81
2022/12/13 00:28:08;;;;;;;55.28;31.88;;;;;;;;;;7374449;19;20634;-82
2022/12/13 00:30:33;;;;;;;53.38;31.50;;;;;;;;;;7373242;19;20007;-83
2022/12/13 00:32:59;;;;;;;56.15;31.45;;;;;;;;;;7369973;19;20471;-83
2022/12/13 00:35:24;;;;;;;55.72;31.85;;;;;;;;;;7370792;19;20022;-82
2022/12/13 00:37:52;;;;;;;53.17;29.83;;;;;;;;;;7360334;19;21610;-87
2022/12/13 00:40:18;;;;;;;55.58;32.05;;;;;;;;;;7367503;19;20014;-83
2022/12/13 00:42:44;;;;;;;59.15;33.17;;;;;;;;;;7378132;19;20014;-89
2022/12/13 00:45:11;;;;;;;57.65;31.20;;;;;;;;;;7373837;19;20054;-86
2022/12/13 00:47:36;;;;;;;60.50;33.30;;;;;;;;;;7373600;19;20529;-82
2022/12/13 00:50:03;;;;;;;56.58;30.48;;;;;;;;;;7373183;19;20487;-86
2022/12/13 00:52:28;;;;;;;54.63;30.33;;;;;;;;;;7373742;19;20010;-88
2022/12/13 00:54:55;;;;;;;51.33;30.17;;;;;;;;;;7369268;19;20549;-88
2022/12/13 00:57:20;;;;;;;53.00;30.45;;;;;;;;;;7378874;19;20040;-84
2022/12/13 00:59:46;;;;;;;54.60;31.08;;;;;;;;;;7388573;19;20073;-85
2022/12/13 01:02:14;;;;;;;56.60;31.15;;;;;;;;;;7378793;19;20270;-90
2022/12/13 01:04:45;;;;;;;49.33;29.27;;;;;;;;;;7369496;19;20021;-88
2022/12/13 01:07:10;;;;;;;56.38;32.00;;;;;;;;;;7370014;19;20026;-84
2022/12/13 01:09:36;;;;;;;54.30;31.70;;;;;;;;;;7371022;19;20018;-84
2022/12/13 01:12:05;;;;;;;55.90;30.77;;;;;;;;;;7372711;19;20022;-87
2022/12/13 01:14:34;;;;;;;58.83;32.95;;;;;;;;;;7374555;19;20007;-89
2022/12/13 01:16:59;;;;;;;58.83;34.35;;;;;;;;;;7372292;19;20010;-86
2022/12/13 01:19:26;;;;;;;61.90;36.58;;;;;;;;;;7373846;19;20033;-88
2022/12/13 01:21:56;;;;;;;55.78;35.38;;;;;;;;;;7368266;19;20346;-90
2022/12/13 01:24:24;;;;;;;64.05;37.60;;;;;;;;;;7372379;19;20010;-86
2022/12/13 01:26:52;;;;;;;69.97;38.20;;;;;;;;;;7371445;19;20030;-89
2022/12/13 01:29:24;;;;;;;64.20;37.28;;;;;;;;;;7365976;19;20069;-87
2022/12/13 01:31:49;;;;;;;57.08;35.95;;;;;;;;;;7367030;19;20486;-87
2022/12/13 01:34:16;;;;;;;64.90;37.80;;;;;;;;;;7374193;19;20544;-83
2022/12/13 01:36:44;;;;;;;65.78;37.05;;;;;;;;;;7369883;19;20062;-85
2022/12/13 01:39:10;;;;;;;64.93;36.13;;;;;;;;;;7373146;19;20021;-85
2022/12/13 01:41:35;;;;;;;58.50;33.08;;;;;;;;;;7342621;19;20022;-87
2022/12/13 01:44:03;;;;;;;64.30;34.78;;;;;;;;;;7369910;19;20014;-88
2022/12/13 01:46:33;;;;;;;60.10;33.80;;;;;;;;;;7367631;19;20003;-87
2022/12/13 01:49:03;;;;;;;67.03;32.53;;;;;;;;;;7371492;19;20026;-88
2022/12/13 01:51:32;;;;;;;63.42;33.53;;;;;;;;;;7372465;19;20604;-89
2022/12/13 01:54:03;;;;;;;56.90;31.92;;;;;;;;;;7371013;19;20143;-87
2022/12/13 01:56:32;;;;;;;60.25;34.10;;;;;;;;;;7371330;19;20110;-86
2022/12/13 01:58:58;;;;;;;55.95;31.33;;;;;;;;;;7368529;19;20059;-85
2022/12/13 02:01:24;;;;;;;60.95;32.67;;;;;;;;;;7358552;19;20119;-88
2022/12/13 02:03:49;;;;;;;54.10;32.10;;;;;;;;;;7372283;19;20423;-88
2022/12/13 02:06:26;;;;;;;56.03;31.02;;;;;;;;;;7367908;19;20021;-83
2022/12/13 02:08:52;;;;;;;53.70;31.23;;;;;;;;;;7371445;19;20030;-88
2022/12/13 02:11:17;;;;;;;57.70;33.42;;;;;;;;;;7366491;19;20040;-87
2022/12/13 02:13:45;;;;;;;59.17;34.08;;;;;;;;;;7366814;19;20347;-86
2022/12/13 02:16:30;;;;;;;64.05;35.13;;;;;;;;;;7369872;19;20483;-89
2022/12/13 02:19:13;;;;;;;63.53;37.13;;;;;;;;;;7365336;19;20014;-88
2022/12/13 02:21:45;;;;;;;63.30;36.83;;;;;;;;;;7364049;19;20102;-87
2022/12/13 02:24:14;;;;;;;64.43;37.03;;;;;;;;;;7366378;19;20021;-87
2022/12/13 02:26:48;;;;;;;62.85;36.45;;;;;;;;;;7347777;19;20018;-82
2022/12/13 02:29:32;;;;;;;59.63;35.20;;;;;;;;;;7373806;19;20343;-88
2022/12/13 02:31:58;;;;;;;;;;;;;;;;;;7368732;19;20391;-83
2022/12/13 02:34:25;;;;;;;70.95;39.70;;;;;;;;;;7368204;19;19929;-88
2022/12/13 02:37:07;;;;;;;76.53;44.00;;;;;;;;;;7367358;19;20018;-84
2022/12/13 02:39:33;;;;;;;75.43;41.63;;;;;;;;;;7365757;19;20451;-88
2022/12/13 02:42:10;;;;;;;72.63;41.65;;;;;;;;;;7332296;19;20068;-88
2022/12/13 02:44:55;;;;;;;76.13;42.10;;;;;;;;;;7305495;19;20033;-87
2022/12/13 02:47:23;;;;;;;72.90;40.70;;;;;;;;;;7308464;19;20023;-84
2022/12/13 02:49:50;;;;;;;70.80;39.33;;;;;;;;;;7312761;19;20006;-84
2022/12/13 02:52:19;;;;;;;74.05;41.10;;;;;;;;;;7320750;19;21501;-84
2022/12/13 02:54:45;;;;;;;79.15;39.90;;;;;;;;;;7311478;19;20503;-84
2022/12/13 02:57:27;;;;;;;66.05;38.70;;;;;;;;;;7314453;19;20010;-85
2022/12/13 02:59:52;;;;;;;74.60;40.90;;;;;;;;;;7310829;19;20721;-87
2022/12/13 03:02:18;;;;;;;72.75;40.50;;;;;;;;;;7315175;19;20019;-81
2022/12/13 03:07:45;;;;;;;69.60;38.55;;;;;;;;;;7314165;19;20013;-81
2022/12/13 03:10:17;;;;;;;68.60;39.08;;;;;;;;;;7311837;19;20005;-82
2022/12/13 03:15:44;;;;;;;63.88;36.88;;;;;;;;;;7311260;19;20505;-81
2022/12/13 03:18:17;;;;;;;64.88;37.63;;;;;;;;;;7316343;19;20269;-87
2022/12/13 03:20:50;;;;;;;61.22;33.70;;;;;;;;;;7305333;19;20066;-86
2022/12/13 03:23:19;;;;;;;63.75;34.50;;;;;;;;;;7313586;19;20037;-82
2022/12/13 03:25:53;;;;;;;63.03;34.50;;;;;;;;;;7310729;19;20266;-87
2022/12/13 03:28:18;;;;;;;62.85;33.88;;;;;;;;;;7315787;19;21112;-84
2022/12/13 03:30:45;;;;;;;57.90;33.35;;;;;;;;;;7317571;19;20579;-80
2022/12/13 03:33:11;;;;;;;57.80;33.20;;;;;;;;;;7316481;19;20664;-86
2022/12/13 03:35:38;;;;;;;61.70;33.25;;;;;;;;;;7322058;19;20025;-86
2022/12/13 03:38:04;;;;;;;57.78;32.00;;;;;;;;;;7320300;19;20006;-83
2022/12/13 03:40:30;;;;;;;58.65;33.40;;;;;;;;;;7322442;19;20055;-85
2022/12/13 03:42:55;;;;;;;60.97;34.55;;;;;;;;;;7352391;19;20431;-82
2022/12/13 03:45:20;;;;;;;56.35;33.35;;;;;;;;;;7373421;19;20032;-87
2022/12/13 03:47:47;;;;;;;60.90;34.78;;;;;;;;;;7373311;19;20022;-84
2022/12/13 03:50:12;;;;;;;52.58;32.55;;;;;;;;;;7365953;19;20015;-87
2022/12/13 03:52:39;;;;;;;56.10;32.33;;;;;;;;;;7372596;19;20883;-89
2022/12/13 03:55:04;;;;;;;62.53;33.22;;;;;;;;;;7372193;19;20081;-89
2022/12/13 03:57:30;;;;;;;60.17;34.33;;;;;;;;;;7372465;19;20614;-88
2022/12/13 03:59:58;;;;;;;57.75;32.45;;;;;;;;;;7374152;19;20468;-86
2022/12/13 04:02:35;;;;;;;56.90;31.95;;;;;;;;;;7368260;19;20111;-88
2022/12/13 04:05:06;;;;;;;57.63;31.98;;;;;;;;;;7361921;19;22006;-86
2022/12/13 04:07:31;;;;;;;53.38;31.33;;;;;;;;;;7369266;19;20018;-87
2022/12/13 04:09:56;;;;;;;58.05;31.52;;;;;;;;;;7372764;19;20010;-84
2022/12/13 04:15:05;;;;;;;;;;;;;;;;;;7377048;19;20810;-89
2022/12/13 04:17:30;;;;;;;60.03;31.80;;;;;;;;;;7371179;19;20010;-87
2022/12/13 04:19:59;;;;;;;55.88;31.40;;;;;;;;;;7375051;19;20414;-91
2022/12/13 04:22:26;;;;;;;48.13;28.85;;;;;;;;;;7376076;19;20320;-85
2022/12/13 04:25:11;;;;;;;49.72;30.20;;;;;;;;;;7366723;19;20049;-85
2022/12/13 04:27:37;;;;;;;53.47;32.00;;;;;;;;;;7368154;19;20014;-86
2022/12/13 04:30:22;;;;;;;52.85;32.05;;;;;;;;;;7374752;19;20011;-89
2022/12/13 04:32:49;;;;;;;52.70;30.10;;;;;;;;;;7372644;19;20628;-86
2022/12/13 04:35:16;;;;;;;54.42;32.33;;;;;;;;;;7370706;19;20041;-88
2022/12/13 04:37:47;;;;;;;55.88;31.52;;;;;;;;;;7372269;19;20022;-87
2022/12/13 04:40:12;;;;;;;56.88;32.38;;;;;;;;;;7373169;19;20466;-88
2022/12/13 04:42:39;;;;;;;52.67;31.92;;;;;;;;;;7369063;19;20022;-88
2022/12/13 04:45:07;;;;;;;54.47;31.98;;;;;;;;;;7367146;19;20006;-90
2022/12/13 04:47:38;;;;;;;51.83;30.92;;;;;;;;;;7372369;19;20450;-88
2022/12/13 04:50:04;;;;;;;53.42;30.38;;;;;;;;;;7367916;19;20090;-81
2022/12/13 04:52:44;;;;;;;52.22;29.88;;;;;;;;;;7375600;19;20223;-86
2022/12/13 04:55:09;;;;;;;51.72;29.73;;;;;;;;;;7371343;19;20014;-87
2022/12/13 04:57:35;;;;;;;55.20;31.67;;;;;;;;;;7361672;19;20337;-84
2022/12/13 05:00:00;;;;;;;56.72;32.05;;;;;;;;;;7363707;19;20702;-85
2022/12/13 05:02:26;;;;;;;51.70;31.35;;;;;;;;;;7365801;19;20022;-84
2022/12/13 05:04:52;;;;;;;52.85;30.17;;;;;;;;;;7364984;19;20273;-88
2022/12/13 05:07:19;;;;;;;52.97;30.38;;;;;;;;;;7394564;19;19995;-81
2022/12/13 05:09:47;;;;;;;53.97;31.17;;;;;;;;;;7401098;19;20014;-80
2022/12/13 05:12:15;;;;;;;50.88;30.77;;;;;;;;;;7401700;19;20217;-85
2022/12/13 05:14:40;;;;;;;53.47;32.38;;;;;;;;;;7389912;19;20014;-84
2022/12/13 05:17:06;;;;;;;52.08;30.73;;;;;;;;;;7385345;19;20023;-89
2022/12/13 05:19:31;;;;;;;55.30;31.13;;;;;;;;;;7384880;19;20007;-84
2022/12/13 05:21:57;;;;;;;53.60;30.52;;;;;;;;;;7381542;19;20379;-88
2022/12/13 05:24:26;;;;;;;50.63;30.52;;;;;;;;;;7374886;19;20011;-79
2022/12/13 05:26:55;;;;;;;52.50;30.70;;;;;;;;;;7374596;19;20350;-91
2022/12/13 05:29:35;;;;;;;57.63;30.60;;;;;;;;;;7370690;19;20033;-88
2022/12/13 05:32:01;;;;;;;47.30;28.73;;;;;;;;;;7372857;19;20014;-90
2022/12/13 05:34:53;;;;;;;53.95;30.95;;;;;;;;;;7379625;19;20010;-89
2022/12/13 05:37:18;;;;;;;51.78;31.33;;;;;;;;;;7374345;19;20054;-89
2022/12/13 05:39:52;;;;;;;49.13;30.30;;;;;;;;;;7374278;19;20010;-87
2022/12/13 05:42:18;;;;;;;51.08;30.73;;;;;;;;;;7372764;19;20014;-89
2022/12/13 05:44:46;;;;;;;50.85;30.33;;;;;;;;;;7368357;19;20113;-85
2022/12/13 05:47:11;;;;;;;54.42;30.80;;;;;;;;;;7379356;19;20006;-81
2022/12/13 05:49:36;;;;;;;49.97;29.42;;;;;;;;;;7377389;19;20204;-91
2022/12/13 05:52:02;;;;;;;52.10;28.35;;;;;;;;;;7374555;19;20321;-85
2022/12/13 05:54:28;;;;;;;48.70;28.42;;;;;;;;;;7378946;19;20042;-89
2022/12/13 05:56:53;;;;;;;49.40;29.30;;;;;;;;;;7376574;19;20118;-88
2022/12/13 05:59:18;;;;;;;51.22;29.15;;;;;;;;;;7382271;19;20012;-89
2022/12/13 06:01:45;;;;;;;54.03;28.95;;;;;;;;;;7376378;19;20014;-86
2022/12/13 06:04:12;;;;;;;50.80;29.27;;;;;;;;;;7376177;19;20017;-83
2022/12/13 06:06:37;;;;;;;49.13;28.50;;;;;;;;;;7369360;19;20092;-90
2022/12/13 06:09:04;;;;;;;52.20;27.60;;;;;;;;;;7377807;19;21621;-86
2022/12/13 06:11:29;;;;;;;49.75;28.83;;;;;;;;;;7377646;19;20009;-86
2022/12/13 06:14:02;;;;;;;45.42;27.13;;;;;;;;;;7373648;19;20031;-88
2022/12/13 06:16:28;;;;;;;47.33;27.50;;;;;;;;;;7364645;19;20198;-85
2022/12/13 06:18:54;;;;;;;44.70;25.83;;;;;;;;;;7373470;19;20452;-90
2022/12/13 06:21:19;;;;;;;44.63;26.33;;;;;;;;;;7358092;19;20543;-90
2022/12/13 06:23:49;;;;;;;44.45;26.45;;;;;;;;;;7378164;19;20007;-82
2022/12/13 06:26:14;;;;;;;44.90;26.15;;;;;;;;;;7365053;19;20002;-90
2022/12/13 06:28:42;;;;;;;47.67;26.45;;;;;;;;;;7374261;19;20017;-89
2022/12/13 06:31:07;;;;;;;44.13;26.67;;;;;;;;;;7374615;19;20049;-88
2022/12/13 06:33:37;;;;;;;42.53;24.60;;;;;;;;;;7379976;19;20007;-87
2022/12/13 06:36:03;;;;;;;42.83;23.58;;;;;;;;;;7372779;19;20392;-84
2022/12/13 06:38:30;;;;;;;40.00;23.55;;;;;;;;;;7370080;19;20025;-89
2022/12/13 06:41:04;;;;;;;45.20;24.95;;;;;;;;;;7348768;19;20014;-81
2022/12/13 06:43:29;;;;;;;43.83;24.77;;;;;;;;;;7365106;19;20029;-81
2022/12/13 06:45:54;;;;;;;41.20;25.40;;;;;;;;;;7371925;19;20520;-79
2022/12/13 06:48:19;;;;;;;43.97;24.83;;;;;;;;;;7350862;19;20458;-85
2022/12/13 06:50:45;;;;;;;44.55;24.00;;;;;;;;;;7369201;19;20011;-86
2022/12/13 06:53:10;;;;;;;41.28;24.70;;;;;;;;;;7367128;19;20226;-87
2022/12/13 06:55:35;;;;;;;50.08;27.92;;;;;;;;;;7373819;19;20058;-85
2022/12/13 06:58:00;;;;;;;50.30;27.77;;;;;;;;;;7376555;19;19998;-87
2022/12/13 07:00:25;;;;;;;44.40;25.80;;;;;;;;;;7376347;19;20018;-88
2022/12/13 07:02:52;;;;;;;47.78;26.58;;;;;;;;;;7377084;19;20067;-86
2022/12/13 07:05:17;;;;;;;45.45;26.52;;;;;;;;;;7376835;19;20011;-85
2022/12/13 07:07:43;;;;;;;41.58;24.85;;;;;;;;;;7376578;19;20505;-88
2022/12/13 07:10:08;;;;;;;44.15;26.05;;;;;;;;;;7374722;19;20009;-86
2022/12/13 07:12:33;;;;;;;45.05;25.70;;;;;;;;;;7376009;19;20002;-86
2022/12/13 07:14:59;;;;;;;45.80;26.65;;;;;;;;;;7375809;19;20145;-86
2022/12/13 07:17:24;;;;;;;41.70;24.55;;;;;;;;;;7379605;19;20414;-84
2022/12/13 07:19:49;;;;;;;44.35;26.23;;;;;;;;;;7371212;19;20010;-87
2022/12/13 07:22:14;;;;;;;44.08;25.20;;;;;;;;;;7375790;19;20059;-87
2022/12/13 07:24:40;;;;;;;46.20;25.25;;;;;;;;;;7363456;19;20478;-87
2022/12/13 07:27:05;;;;;;;43.75;26.02;;;;;;;;;;7373257;19;20027;-82
2022/12/13 07:29:30;;;;;;;43.63;25.90;;;;;;;;;;7376462;19;20011;-83
2022/12/13 07:31:55;;;;;;;48.53;27.63;;;;;;;;;;7374031;19;20092;-84
2022/12/13 07:34:21;;;;;;;46.63;28.60;;;;;;;;;;7374435;19;20145;-84
2022/12/13 07:36:48;;;;;;;48.80;27.45;;;;;;;;;;7373065;19;20577;-81
2022/12/13 07:39:13;;;;;;;47.15;27.50;;;;;;;;;;7375149;19;20083;-83
2022/12/13 07:41:38;;;;;;;44.67;26.45;;;;;;;;;;7370928;19;20051;-83
2022/12/13 07:44:03;;;;;;;45.40;26.52;;;;;;;;;;7370149;19;20022;-83
2022/12/13 07:46:29;;;;;;;49.90;29.27;;;;;;;;;;7375798;19;20006;-82
2022/12/13 07:48:54;;;;;;;44.45;27.27;;;;;;;;;;7371712;19;20030;-84
2022/12/13 07:51:20;;;;;;;46.35;26.85;;;;;;;;;;7374192;19;20122;-83
2022/12/13 07:53:45;;;;;;;44.25;26.88;;;;;;;;;;7372071;19;20022;-84
2022/12/13 07:56:10;;;;;;;45.00;26.95;;;;;;;;;;7369124;19;21575;-84
2022/12/13 07:58:36;;;;;;;46.55;27.90;;;;;;;;;;7376933;19;20014;-84
2022/12/13 08:01:03;;;;;;;47.15;28.00;;;;;;;;;;7371544;19;20019;-84
2022/12/13 08:03:28;;;;;;;49.15;27.90;;;;;;;;;;7370351;19;20438;-83
2022/12/13 08:05:57;;;;;;;47.70;28.42;;;;;;;;;;7372986;19;19999;-84
2022/12/13 08:08:22;;;;;;;48.60;28.75;;;;;;;;;;7369957;19;20083;-83
2022/12/13 08:10:48;;;;;;;47.92;26.52;;;;;;;;;;7374523;19;20009;-83
2022/12/13 08:13:13;;;;;;;48.00;29.25;;;;;;;;;;7371745;19;20579;-83
2022/12/13 08:15:38;;;;;;;46.55;28.52;;;;;;;;;;7371923;19;20454;-84
2022/12/13 08:18:03;;;;;;;51.00;29.33;;;;;;;;;;7363384;19;20070;-84
2022/12/13 08:20:29;;;;;;;46.97;28.73;;;;;;;;;;7371063;19;20298;-84
2022/12/13 08:22:55;;;;;;;52.90;31.25;;;;;;;;;;7366260;19;20011;-83
2022/12/13 08:25:20;;;;;;;49.20;28.75;;;;;;;;;;7375562;19;20433;-83
2022/12/13 08:27:45;;;;;;;52.10;30.90;;;;;;;;;;7372778;19;20051;-84
2022/12/13 08:30:10;;;;;;;47.15;28.45;;;;;;;;;;7373431;19;20017;-83
2022/12/13 08:32:36;;;;;;;47.88;28.75;;;;;;;;;;7371702;19;20110;-84
2022/12/13 08:35:01;;;;;;;47.47;28.35;;;;;;;;;;7370393;19;20046;-84
2022/12/13 08:37:26;;;;;;;48.72;28.33;;;;;;;;;;7374870;19;20025;-84
2022/12/13 08:39:52;;;;;;;48.45;27.25;;;;;;;;;;7368256;19;20015;-84
2022/12/13 08:42:17;;;;;;;44.53;26.08;;;;;;;;;;7369124;19;20007;-82
2022/12/13 08:44:43;;;;;;;43.30;26.75;;;;;;;;;;7372416;19;20010;-84
2022/12/13 08:47:08;;;;;;;45.42;26.60;;;;;;;;;;7373125;19;20022;-83
2022/12/13 08:49:34;;;;;;;43.10;25.88;;;;;;;;;;7377631;19;20307;-84
2022/12/13 08:51:59;;;;;;;42.33;24.55;;;;;;;;;;7370684;19;20056;-84
2022/12/13 08:54:24;;;;;;;43.20;25.20;;;;;;;;;;7375633;19;20011;-84
2022/12/13 08:56:49;;;;;;;41.05;24.50;;;;;;;;;;7372250;19;20442;-81
2022/12/13 08:59:15;;;;;;;43.80;25.15;;;;;;;;;;7369694;19;20026;-83
2022/12/13 09:01:40;;;;;;;40.63;24.10;;;;;;;;;;7371606;19;20058;-84
2022/12/13 09:04:05;;;;;;;42.60;24.67;;;;;;;;;;7371161;19;20023;-84
2022/12/13 09:06:30;;;;;;;41.67;23.77;;;;;;;;;;7375991;19;20109;-83
2022/12/13 09:08:55;;;;;;;37.25;22.48;;;;;;;;;;7371143;19;20408;-83
2022/12/13 09:11:21;;;;;;;39.95;22.42;;;;;;;;;;7370111;19;20027;-83
2022/12/13 09:13:46;;;;;;;42.13;23.63;;;;;;;;;;7374176;19;20007;-83
2022/12/13 09:16:13;;;;;;;41.15;24.10;;;;;;;;;;7368833;19;20022;-83
2022/12/13 09:18:38;;;;;;;37.40;22.77;;;;;;;;;;7375341;19;20078;-83
2022/12/13 09:21:07;;;;;;;36.30;21.25;;;;;;;;;;7371486;19;20051;-83
2022/12/13 09:23:32;;;;;;;38.42;21.27;;;;;;;;;;7373017;19;20033;-83
2022/12/13 09:25:59;;;;;;;37.97;21.65;;;;;;;;;;7367941;19;20007;-83
2022/12/13 09:28:25;;;;;;;36.75;20.98;;;;;;;;;;7374861;19;20082;-83
2022/12/13 09:30:50;;;;;;;37.92;21.48;;;;;;;;;;7374783;19;20423;-83
2022/12/13 09:33:15;;;;;;;38.45;20.80;;;;;;;;;;7372698;19;20027;-83
2022/12/13 09:35:40;;;;;;;35.40;21.15;;;;;;;;;;7368912;19;20406;-83
2022/12/13 09:38:06;;;;;;;35.28;20.63;;;;;;;;;;7370763;19;20036;-84
2022/12/13 09:40:32;;;;;;;32.72;18.35;;;;;;;;;;7372939;19;20018;-83
2022/12/13 09:42:58;;;;;;;34.40;19.23;;;;;;;;;;7358843;19;20779;-81
2022/12/13 09:45:23;;;;;;;37.40;20.45;;;;;;;;;;7371892;19;20118;-81
2022/12/13 09:47:49;;;;;;;28.83;17.52;;;;;;;;;;7370964;19;20095;-81
2022/12/13 09:50:20;;;;;;;30.00;16.73;;;;;;;;;;7368274;19;20003;-82
2022/12/13 09:52:46;;;;;;;31.63;18.13;;;;;;;;;;7370898;19;20018;-80
2022/12/13 09:55:30;;;;;;;30.45;16.75;;;;;;;;;;7370373;19;20015;-82
2022/12/13 09:57:56;;;;;;;27.10;15.93;;;;;;;;;;7368323;19;20064;-82
2022/12/13 10:00:22;;;;;;;29.92;16.75;;;;;;;;;;7367427;19;20102;-82
2022/12/13 10:02:50;;;;;;;30.98;16.40;;;;;;;;;;7371126;19;20135;-83
2022/12/13 10:05:18;;;;;;;31.02;18.13;;;;;;;;;;7370728;19;20079;-82
2022/12/13 10:07:43;;;;;;;27.77;15.68;;;;;;;;;;7370190;19;20051;-81
2022/12/13 10:10:10;;;;;;;28.92;16.25;;;;;;;;;;7368014;19;20165;-81
2022/12/13 10:12:36;;;;;;;26.85;15.82;;;;;;;;;;7362781;19;20600;-82
2022/12/13 10:15:02;;;;;;;27.20;14.98;;;;;;;;;;7366681;19;20018;-81
2022/12/13 10:17:33;;;;;;;23.92;13.48;;;;;;;;;;7370254;19;20454;-82
2022/12/13 10:19:58;;;;;;;23.73;12.63;;;;;;;;;;7365979;19;20011;-82
2022/12/13 10:22:23;;;;;;;18.98;10.85;;;;;;;;;;7369308;19;20013;-81
2022/12/13 10:24:56;;;;;;;18.52;9.30;;;;;;;;;;7371277;19;20041;-80
2022/12/13 10:27:47;;;;;;;18.50;9.77;;;;;;;;;;7364425;19;20019;-81
2022/12/13 10:30:21;;;;;;;18.83;9.90;;;;;;;;;;7369021;19;20019;-81
2022/12/13 10:32:49;;;;;;;17.77;9.23;;;;;;;;;;7378249;19;20467;-81
2022/12/13 10:35:21;;;;;;;19.10;10.00;;;;;;;;;;7374450;19;20021;-81
2022/12/13 10:37:47;;;;;;;17.07;9.70;;;;;;;;;;7373484;19;20014;-81
2022/12/13 10:40:22;;;;;;;18.95;10.25;;;;;;;;;;7375462;19;20307;-81
2022/12/13 10:43:04;;;;;;;19.52;10.02;;;;;;;;;;7376018;19;20326;-81
2022/12/13 10:45:29;;;;;;;21.38;10.15;;;;;;;;;;7377490;19;20014;-82
2022/12/13 10:47:54;;;;;;;17.00;9.18;;;;;;;;;;7378551;19;20013;-82
2022/12/13 10:50:25;;;;;;;17.38;9.88;;;;;;;;;;7373662;19;20029;-81
2022/12/13 10:52:51;;;;;;;18.38;10.02;;;;;;;;;;7376448;19;20034;-81
2022/12/13 10:55:25;;;;;;;18.23;9.25;;;;;;;;;;7373805;19;20017;-81
2022/12/13 10:57:51;;;;;;;16.73;9.05;;;;;;;;;;7372749;19;20022;-81
2022/12/13 11:00:35;;;;;;;15.88;8.52;;;;;;;;;;7374579;19;20394;-81
2022/12/13 11:03:00;;;;;;;;;;;;;;;;;;7376519;19;20041;-81
2022/12/13 11:05:27;;;;;;;16.63;8.80;;;;;;;;;;7371831;19;19954;-81
2022/12/13 11:07:56;;;;;;;16.55;8.40;;;;;;;;;;7376150;19;20043;-81
2022/12/13 11:10:23;;;;;;;17.73;9.10;;;;;;;;;;7370426;19;21446;-82
2022/12/13 11:12:48;;;;;;;14.98;7.85;;;;;;;;;;7372204;19;20093;-81
2022/12/13 11:15:19;;;;;;;16.67;7.40;;;;;;;;;;7373264;19;20026;-81
2022/12/13 11:17:50;;;;;;;21.23;8.27;;;;;;;;;;7373997;19;20038;-80
2022/12/13 11:20:18;;;;;;;14.60;8.00;;;;;;;;;;7374132;19;20031;-81
2022/12/13 11:22:43;;;;;;;15.95;8.52;;;;;;;;;;7376702;19;20007;-81
2022/12/13 11:25:35;;;;;;;15.50;8.18;;;;;;;;;;7369318;19;20423;-81
2022/12/13 11:28:19;;;;;;;14.35;7.65;;;;;;;;;;7374955;19;20132;-82
2022/12/13 11:30:44;;;;;;;;;;;;;;;;;;7374987;19;20018;-81
2022/12/13 11:33:12;;;;;;;14.60;8.02;;;;;;;;;;7373100;19;19927;-80
2022/12/13 11:35:43;;;;;;;14.30;7.80;;;;;;;;;;7372362;19;20301;-81
2022/12/13 11:38:27;;;;;;;16.02;8.55;;;;;;;;;;7372076;19;20031;-83
2022/12/13 11:40:55;;;;;;;17.77;8.10;;;;;;;;;;7373670;19;20091;-83
2022/12/13 11:43:47;;;;;;;18.10;9.57;;;;;;;;;;7369257;19;20104;-80
2022/12/13 11:46:14;;;;;;;15.75;7.97;;;;;;;;;;7366314;19;20013;-82
2022/12/13 11:48:45;;;;;;;15.75;8.57;;;;;;;;;;7375909;19;20018;-82
2022/12/13 11:51:12;;;;;;;15.20;8.00;;;;;;;;;;7373275;19;20045;-80
2022/12/13 11:53:48;;;;;;;15.05;7.82;;;;;;;;;;7373283;19;20043;-81
2022/12/13 11:56:16;;;;;;;16.00;8.02;;;;;;;;;;7364693;19;20570;-80
2022/12/13 11:59:00;;;;;;;15.32;8.13;;;;;;;;;;7374213;19;20019;-82
2022/12/13 12:01:31;;;;;;;15.88;8.25;;;;;;;;;;7369410;19;20014;-81
2022/12/13 12:04:05;;;;;;;15.00;8.52;;;;;;;;;;7371169;19;20138;-79
2022/12/13 12:06:37;;;;;;;14.77;7.80;;;;;;;;;;7369495;19;20067;-80
2022/12/13 12:09:04;;;;;;;16.00;8.02;;;;;;;;;;7371358;19;20007;-80
2022/12/13 12:11:38;;;;;;;14.70;7.78;;;;;;;;;;7369105;19;20022;-80
2022/12/13 12:14:09;;;;;;;21.50;9.43;;;;;;;;;;7372258;19;20030;-80
2022/12/13 12:16:50;;;;;;;17.73;8.07;;;;;;;;;;7371034;19;20470;-80
2022/12/13 12:19:17;;;;;;;15.73;8.13;;;;;;;;;;7354566;19;20015;-80
2022/12/13 12:22:01;;;;;;;14.95;8.23;;;;;;;;;;7364601;19;20034;-81
2022/12/13 12:24:43;;;;;;;15.35;7.97;;;;;;;;;;7371153;19;20017;-80
2022/12/13 12:27:29;;;;;;;16.42;8.93;;;;;;;;;;7365277;19;20026;-79
2022/12/13 12:29:54;;;;;;;14.70;8.30;;;;;;;;;;7367989;19;20035;-80
2022/12/13 12:32:40;;;;;;;16.05;8.23;;;;;;;;;;7369136;19;20746;-80
2022/12/13 12:35:28;;;;;;;15.70;8.10;;;;;;;;;;7371605;19;20017;-81
2022/12/13 12:38:12;;;;;;;14.80;8.05;;;;;;;;;;7368068;19;20090;-80
2022/12/13 12:40:47;;;;;;;16.67;8.45;;;;;;;;;;7370588;19;20018;-80
2022/12/13 12:43:24;;;;;;;14.50;7.65;;;;;;;;;;7367878;19;20014;-81
2022/12/13 12:45:56;;;;;;;15.77;7.80;;;;;;;;;;7371428;19;20006;-80
2022/12/13 12:48:21;;;;;;;14.85;7.60;;;;;;;;;;7370537;19;20018;-80
2022/12/13 12:50:51;;;;;;;19.13;8.32;;;;;;;;;;7363977;19;20760;-81
2022/12/13 12:53:16;;;;;;;17.10;7.75;;;;;;;;;;7367128;19;20096;-80
2022/12/13 12:55:55;;;;;;;13.00;6.93;;;;;;;;;;7367287;19;20032;-80
2022/12/13 12:58:27;;;;;;;13.20;7.13;;;;;;;;;;7365104;19;20286;-80
2022/12/13 13:00:58;;;;;;;14.82;7.13;;;;;;;;;;7365390;19;20809;-79
2022/12/13 13:03:24;;;;;;;13.68;7.10;;;;;;;;;;7351601;19;20018;-80
2022/12/13 13:05:52;;;;;;;16.60;6.97;;;;;;;;;;7357598;19;20018;-81
2022/12/13 13:08:22;;;;;;;14.48;7.35;;;;;;;;;;7364770;19;20018;-80
2022/12/13 13:10:49;;;;;;;13.65;6.50;;;;;;;;;;7372048;19;20020;-80
2022/12/13 13:13:33;;;;;;;13.43;7.05;;;;;;;;;;7361721;19;20010;-80
2022/12/13 13:16:00;;;;;;;14.45;7.20;;;;;;;;;;7369220;19;20167;-80
2022/12/13 13:18:46;;;;;;;13.13;6.97;;;;;;;;;;7365560;19;20552;-80
2022/12/13 13:21:24;;;;;;;15.40;6.90;;;;;;;;;;7360088;19;20006;-79
2022/12/13 13:24:11;;;;;;;14.55;7.38;;;;;;;;;;7366241;19;20346;-80
2022/12/13 13:26:41;;;;;;;14.63;7.03;;;;;;;;;;7367390;19;20025;-79
2022/12/13 13:29:15;;;;;;;16.92;8.20;;;;;;;;;;7364280;19;20028;-80
2022/12/13 13:31:55;;;;;;;14.88;7.65;;;;;;;;;;7368895;19;20312;-80
2022/12/13 13:34:22;;;;;;;18.08;9.05;;;;;;;;;;7369273;19;20018;-80
2022/12/13 13:36:51;;;;;;;16.25;7.10;;;;;;;;;;7368010;19;20170;-79
2022/12/13 13:39:18;;;;;;;14.73;6.43;;;;;;;;;;7360207;19;20006;-78
2022/12/13 13:41:54;;;;;;;13.68;6.60;;;;;;;;;;7361916;19;20022;-80
2022/12/13 13:44:33;;;;;;;14.50;6.38;;;;;;;;;;7362069;19;20045;-80
2022/12/13 13:47:16;;;;;;;15.43;7.00;;;;;;;;;;7359900;19;20014;-80
2022/12/13 13:49:53;;;;;;;12.88;6.68;;;;;;;;;;7357945;19;20030;-80
2022/12/13 13:52:22;;;;;;;13.70;6.47;;;;;;;;;;7366407;19;20459;-80
2022/12/13 13:54:47;;;;;;;14.10;7.07;;;;;;;;;;7368796;19;20309;-80
2022/12/13 13:57:13;;;;;;;13.85;6.90;;;;;;;;;;7364239;19;20010;-80
2022/12/13 13:59:57;;;;;;;12.90;7.40;;;;;;;;;;7366529;19;20027;-80
2022/12/13 14:02:23;;;;;;;;;;;;;;;;;;7365566;19;20006;-80
2022/12/13 14:05:07;;;;;;;12.65;6.88;;;;;;;;;;7360372;19;20506;-80
2022/12/13 14:07:44;;;;;;;12.05;6.43;;;;;;;;;;7363585;19;20015;-81
2022/12/13 14:10:17;;;;;;;19.05;8.45;;;;;;;;;;7368801;19;20020;-80
2022/12/13 14:13:01;;;;;;;15.43;8.18;;;;;;;;;;7363175;19;20011;-80
2022/12/13 14:15:32;;;;;;;12.80;7.10;;;;;;;;;;7364861;19;20118;-79
2022/12/13 14:17:57;;;;;;;16.10;7.95;;;;;;;;;;7362083;19;20031;-80
2022/12/13 14:20:22;;;;;;;15.73;7.55;;;;;;;;;;7360245;19;20029;-80
2022/12/13 14:22:47;;;;;;;15.63;8.02;;;;;;;;;;7357455;19;20678;-80
2022/12/13 14:25:31;;;;;;;13.65;6.80;;;;;;;;;;7362982;19;20027;-80
2022/12/13 14:27:59;;;;;;;14.75;7.15;;;;;;;;;;7365731;19;20010;-80
2022/12/13 14:30:24;;;;;;;17.08;8.95;;;;;;;;;;7361439;19;20105;-81
2022/12/13 14:32:50;;;;;;;18.02;9.25;;;;;;;;;;7366184;19;20495;-80
2022/12/13 14:35:28;;;;;;;16.67;7.78;;;;;;;;;;7365905;19;20036;-81
2022/12/13 14:37:57;;;;;;;17.10;8.85;;;;;;;;;;7369286;19;20082;-80
2022/12/13 14:40:31;;;;;;;19.00;8.38;;;;;;;;;;7364337;19;20239;-80